Time;durP1;ratioP1;P1;durP2;ratioP2;P2;SDS_P1;SDS_P2;PMS_P1;PMS_P2;Temp;Humidity;BMP_temperature;BMP_pressure;BME280_temperature;BME280_humidity;BME280_pressure;Samples;Min_cycle;Max_cycle;Signal;HPM_P1;HPM_P2
2022/10/16 00:00:40;;;;;;;8.45;3.25;;;;;;;13.75;88.75;101041.13;5048183;28;20079;-70
2022/10/16 00:03:06;;;;;;;7.45;2.88;;;;;;;13.76;88.88;101037.69;5042915;28;20032;-70
2022/10/16 00:05:37;;;;;;;7.10;2.90;;;;;;;13.75;88.84;101037.66;5028041;28;20104;-70
2022/10/16 00:08:02;;;;;;;5.85;2.72;;;;;;;13.73;89.26;101034.19;5042820;28;20487;-70
2022/10/16 00:10:28;;;;;;;6.43;3.05;;;;;;;13.74;89.16;101038.50;5041513;28;20056;-70
2022/10/16 00:12:54;;;;;;;5.45;2.88;;;;;;;13.72;89.32;101038.50;5043781;28;20499;-70
2022/10/16 00:15:19;;;;;;;9.25;3.00;;;;;;;13.70;89.65;101035.00;5044781;28;20200;-70
2022/10/16 00:17:45;;;;;;;5.63;2.67;;;;;;;13.70;89.69;101035.00;5041450;28;20032;-70
2022/10/16 00:20:10;;;;;;;6.10;2.97;;;;;;;13.70;89.50;101037.56;5041631;28;20036;-71
2022/10/16 00:22:35;;;;;;;5.28;2.85;;;;;;;13.68;89.73;101042.72;5041490;28;20033;-70
2022/10/16 00:25:01;;;;;;;8.43;3.10;;;;;;;13.66;89.38;101041.84;5018392;28;20390;-70
2022/10/16 00:27:26;;;;;;;8.32;2.88;;;;;;;13.63;89.74;101034.00;5045487;28;20044;-70
2022/10/16 00:29:52;;;;;;;5.45;2.63;;;;;;;13.65;89.82;101039.19;5040183;28;20458;-70
2022/10/16 00:32:20;;;;;;;6.10;2.83;;;;;;;13.64;89.84;101040.91;5045028;28;20025;-70
2022/10/16 00:34:46;;;;;;;5.63;2.85;;;;;;;13.64;89.41;101035.75;5038937;28;20119;-70
2022/10/16 00:37:13;;;;;;;6.85;2.60;;;;;;;13.66;89.60;101038.38;5044341;28;20115;-70
2022/10/16 00:39:38;;;;;;;6.60;2.80;;;;;;;13.62;89.69;101034.84;5021637;28;20438;-70
2022/10/16 00:42:03;;;;;;;5.80;2.60;;;;;;;13.64;89.36;101033.16;5044904;28;20033;-70
2022/10/16 00:44:44;;;;;;;4.18;2.50;;;;;;;13.68;89.74;101041.84;5049349;28;20466;-70
2022/10/16 00:47:12;;;;;;;5.28;2.60;;;;;;;13.62;89.52;101046.91;5041570;28;21103;-70
2022/10/16 00:49:38;;;;;;;10.68;2.85;;;;;;;13.59;89.79;101052.00;5029046;28;20024;-70
2022/10/16 00:52:05;;;;;;;6.55;2.65;;;;;;;13.55;89.92;101047.63;5040251;28;20433;-71
2022/10/16 00:54:32;;;;;;;5.35;2.38;;;;;;;13.54;90.05;101046.78;5041723;28;20071;-70
2022/10/16 00:57:01;;;;;;;5.72;2.45;;;;;;;13.57;89.88;101051.97;5046282;28;20159;-70
2022/10/16 00:59:41;;;;;;;8.63;2.78;;;;;;;13.59;90.00;101050.31;5045660;28;20082;-70
2022/10/16 01:02:13;;;;;;;4.03;2.40;;;;;;;13.59;90.35;101046.84;5043022;28;20029;-71
2022/10/16 01:04:43;;;;;;;5.68;2.70;;;;;;;13.54;90.05;101045.91;5042224;28;20107;-70
2022/10/16 01:07:11;;;;;;;7.97;2.85;;;;;;;13.53;90.28;101046.72;5044211;28;20036;-71
2022/10/16 01:10:19;;;;;;;8.43;2.65;;;;;;;13.56;89.89;101029.56;5042689;28;20064;-71
2022/10/16 01:12:59;;;;;;;3.87;2.10;;;;;;;13.56;89.89;101031.28;5043580;28;20534;-70
2022/10/16 01:15:24;;;;;;;4.82;2.53;;;;;;;13.54;90.02;101038.16;5040730;28;20291;-70
2022/10/16 01:17:59;;;;;;;5.13;2.40;;;;;;;13.53;90.42;101033.81;5045372;28;20445;-71
2022/10/16 01:20:39;;;;;;;4.53;2.42;;;;;;;13.51;90.49;101035.50;5043427;28;20039;-70
2022/10/16 01:23:33;;;;;;;5.05;2.35;;;;;;;13.50;90.62;101041.50;5040320;28;20017;-71
2022/10/16 01:26:19;;;;;;;6.63;2.25;;;;;;;13.54;90.67;101054.53;5041163;28;20040;-70
2022/10/16 01:28:54;;;;;;;4.35;2.10;;;;;;;13.50;90.82;101050.13;5037110;28;20021;-71
2022/10/16 01:31:25;;;;;;;3.80;2.15;;;;;;;13.50;90.81;101046.69;5042569;28;20045;-70
2022/10/16 01:34:35;;;;;;;4.47;2.10;;;;;;;13.56;90.68;101044.22;5041697;28;20032;-71
2022/10/16 01:37:12;;;;;;;5.63;2.03;;;;;;;13.49;91.04;101034.59;5039358;28;20053;-70
2022/10/16 01:39:42;;;;;;;4.70;2.17;;;;;;;13.47;90.70;101044.03;5041319;28;20052;-70
2022/10/16 01:42:34;;;;;;;7.22;1.95;;;;;;;13.52;90.69;101038.09;5039771;28;20049;-70
2022/10/16 01:45:01;;;;;;;4.97;2.17;;;;;;;13.43;91.05;101044.81;5041238;28;20391;-70
2022/10/16 01:47:27;;;;;;;7.18;2.17;;;;;;;13.42;91.06;101056.88;5043763;28;20116;-70
2022/10/16 01:49:55;;;;;;;4.32;1.80;;;;;;;13.47;91.07;101059.53;5044136;28;20041;-70
2022/10/16 01:52:25;;;;;;;3.30;2.00;;;;;;;13.47;91.18;101044.91;5039724;28;20013;-71
2022/10/16 01:54:54;;;;;;;2.90;2.00;;;;;;;13.46;91.06;101039.69;5043038;28;20032;-70
2022/10/16 01:57:22;;;;;;;4.18;1.77;;;;;;;13.43;91.36;101045.69;5018512;28;20056;-70
2022/10/16 01:59:52;;;;;;;3.15;1.88;;;;;;;13.44;91.44;101041.41;5041974;28;20032;-70
2022/10/16 02:02:20;;;;;;;5.43;1.95;;;;;;;13.43;91.24;101039.66;5037957;28;20032;-70
2022/10/16 02:04:49;;;;;;;4.03;2.00;;;;;;;13.42;91.20;101051.72;5039220;28;20036;-70
2022/10/16 02:07:15;;;;;;;;;;;;;;;13.59;90.50;101047.72;5019217;28;20028;-70
2022/10/16 02:09:40;;;;;;;4.28;1.88;;;;;;;13.43;91.31;101045.69;5034964;28;19996;-70
2022/10/16 02:12:19;;;;;;;5.55;1.77;;;;;;;13.45;91.50;101059.50;5043247;28;20466;-70
2022/10/16 02:14:44;;;;;;;4.03;1.90;;;;;;;13.41;91.42;101062.88;5039312;28;20104;-71
2022/10/16 02:17:15;;;;;;;5.68;2.00;;;;;;;13.38;91.77;101055.94;5041327;28;20103;-70
2022/10/16 02:19:41;;;;;;;3.30;1.73;;;;;;;13.40;91.46;101063.69;5043307;28;20036;-70
2022/10/16 02:22:09;;;;;;;4.10;1.63;;;;;;;13.39;91.86;101062.81;5043464;28;20024;-70
2022/10/16 02:24:47;;;;;;;3.30;1.77;;;;;;;13.40;91.43;101050.78;5040806;28;20460;-70
2022/10/16 02:27:37;;;;;;;6.20;1.80;;;;;;;13.47;91.55;101059.53;5041680;28;20020;-70
2022/10/16 02:30:13;;;;;;;2.75;1.77;;;;;;;13.43;91.48;101056.03;5039274;28;20505;-70
2022/10/16 02:32:41;;;;;;;3.70;1.75;;;;;;;13.38;91.13;101045.59;5040799;28;20021;-70
2022/10/16 02:35:08;;;;;;;3.00;1.70;;;;;;;13.40;91.41;101050.78;5038357;28;20047;-70
2022/10/16 02:37:35;;;;;;;4.55;1.58;;;;;;;13.41;91.06;101052.56;5036788;28;20211;-70
2022/10/16 02:40:01;;;;;;;6.65;1.88;;;;;;;13.38;91.35;101058.50;5040689;28;20494;-70
2022/10/16 02:42:29;;;;;;;3.38;1.70;;;;;;;13.35;91.19;101058.47;5021995;28;20033;-70
2022/10/16 02:44:55;;;;;;;3.75;1.70;;;;;;;13.36;91.09;101072.25;5040347;28;20063;-70
2022/10/16 02:47:20;;;;;;;6.68;1.83;;;;;;;13.36;90.98;101072.25;5039158;28;20025;-70
2022/10/16 02:49:45;;;;;;;5.97;1.70;;;;;;;13.34;91.33;101063.56;5040082;28;20032;-70
2022/10/16 02:52:11;;;;;;;4.07;1.48;;;;;;;13.35;91.35;101058.47;5010041;28;20080;-70
2022/10/16 02:54:36;;;;;;;3.72;1.45;;;;;;;13.31;91.33;101048.91;5043170;28;20029;-70
2022/10/16 02:57:01;;;;;;;4.30;1.63;;;;;;;13.31;91.17;101050.63;5036034;28;20049;-70
2022/10/16 02:59:27;;;;;;;3.70;1.50;;;;;;;13.30;91.36;101054.03;5042372;28;20025;-70
2022/10/16 03:01:52;;;;;;;3.92;1.70;;;;;;;13.30;91.31;101049.75;5039343;28;20033;-70
2022/10/16 03:04:17;;;;;;;4.82;1.80;;;;;;;13.31;91.26;101046.31;5040149;28;20017;-71
2022/10/16 03:06:43;;;;;;;3.10;1.42;;;;;;;13.33;91.35;101056.69;5040438;28;20111;-70
2022/10/16 03:09:08;;;;;;;4.75;1.92;;;;;;;13.24;91.31;101056.50;5022526;28;20486;-70
2022/10/16 03:11:33;;;;;;;3.22;1.60;;;;;;;13.27;91.38;101056.56;5020372;28;20567;-71
2022/10/16 03:13:59;;;;;;;5.10;1.58;;;;;;;13.27;91.25;101052.25;5041622;28;20025;-70
2022/10/16 03:16:24;;;;;;;5.93;1.80;;;;;;;13.24;91.33;101054.78;5045223;28;20060;-70
2022/10/16 03:18:50;;;;;;;2.63;1.33;;;;;;;13.26;91.43;101063.44;5044449;28;20033;-70
2022/10/16 03:21:15;;;;;;;3.03;1.42;;;;;;;13.22;91.37;101065.91;5045022;28;20044;-70
2022/10/16 03:23:41;;;;;;;6.63;1.60;;;;;;;13.24;91.49;101072.00;5022380;28;20045;-70
2022/10/16 03:26:06;;;;;;;3.75;1.60;;;;;;;13.22;91.51;101071.06;5043818;28;20029;-70
2022/10/16 03:28:32;;;;;;;5.07;1.60;;;;;;;13.24;91.48;101085.78;5044779;28;20559;-70
2022/10/16 03:30:57;;;;;;;3.85;1.73;;;;;;;13.23;91.63;101083.19;5045636;28;20032;-70
2022/10/16 03:33:22;;;;;;;2.45;1.50;;;;;;;13.22;91.60;101089.16;5026414;28;20116;-71
2022/10/16 03:35:54;;;;;;;2.85;1.60;;;;;;;13.26;91.76;101093.56;5023936;28;20110;-70
2022/10/16 03:38:20;;;;;;;2.92;1.83;;;;;;;13.20;91.83;101083.94;5044593;28;20487;-70
2022/10/16 03:40:46;;;;;;;2.55;1.40;;;;;;;13.14;91.92;101092.41;5039660;28;20065;-70
2022/10/16 03:43:11;;;;;;;6.47;1.60;;;;;;;13.16;91.76;101071.78;5049642;28;20670;-70
2022/10/16 03:45:37;;;;;;;2.47;1.40;;;;;;;13.16;92.00;101082.13;5044055;28;20115;-70
2022/10/16 03:48:03;;;;;;;4.57;1.40;;;;;;;13.15;91.95;101085.53;5046041;28;20082;-70
2022/10/16 03:50:29;;;;;;;3.88;1.30;;;;;;;13.13;92.08;101082.94;5040853;28;20036;-70
2022/10/16 03:52:54;;;;;;;4.70;1.65;;;;;;;13.15;92.29;101086.41;5044850;28;20085;-70
2022/10/16 03:55:20;;;;;;;2.88;1.30;;;;;;;13.16;92.24;101095.03;5036560;28;20502;-70
2022/10/16 03:57:45;;;;;;;4.18;1.60;;;;;;;13.17;92.47;101101.09;5041985;28;20368;-70
2022/10/16 04:00:12;;;;;;;3.78;1.40;;;;;;;13.14;92.61;101099.28;5045120;28;20025;-70
2022/10/16 04:02:37;;;;;;;4.18;1.33;;;;;;;13.14;92.61;101094.13;5045739;28;20039;-70
2022/10/16 04:05:03;;;;;;;4.75;1.50;;;;;;;13.12;92.74;101091.53;5044483;28;20032;-70
2022/10/16 04:07:28;;;;;;;2.58;1.17;;;;;;;13.14;92.78;101097.59;5040230;28;20029;-70
2022/10/16 04:09:54;;;;;;;4.97;1.20;;;;;;;13.12;92.79;101096.69;5041459;28;20083;-70
2022/10/16 04:12:20;;;;;;;4.30;1.30;;;;;;;13.12;92.98;101095.81;5041189;28;20523;-71
2022/10/16 04:14:45;;;;;;;4.03;1.50;;;;;;;13.11;93.11;101107.88;5042473;28;20086;-70
2022/10/16 04:17:10;;;;;;;3.45;1.23;;;;;;;13.08;93.16;101102.63;5041574;28;20120;-71
2022/10/16 04:19:36;;;;;;;2.70;1.13;;;;;;;13.14;93.15;101104.47;5023082;28;20372;-71
2022/10/16 04:22:01;;;;;;;3.15;1.60;;;;;;;13.11;93.27;101112.16;5044461;28;20033;-70
2022/10/16 04:24:27;;;;;;;2.47;1.08;;;;;;;13.13;93.02;101107.88;5024244;28;20021;-70
2022/10/16 04:26:52;;;;;;;5.72;1.25;;;;;;;13.13;93.13;101111.34;5042714;28;20082;-70
2022/10/16 04:29:17;;;;;;;2.83;1.20;;;;;;;13.12;93.30;101108.72;5042852;28;20025;-70
2022/10/16 04:31:43;;;;;;;2.47;1.27;;;;;;;13.10;93.23;101097.47;5038986;28;20437;-70
2022/10/16 04:34:08;;;;;;;1.27;1.08;;;;;;;13.13;93.31;101110.47;5046424;28;20041;-70
2022/10/16 04:36:33;;;;;;;6.85;1.20;;;;;;;13.10;93.40;101103.53;5049120;28;20491;-70
2022/10/16 04:38:59;;;;;;;2.75;1.27;;;;;;;13.10;93.43;101112.97;5040781;28;20037;-71
2022/10/16 04:41:24;;;;;;;3.38;1.50;;;;;;;13.10;93.39;101116.44;5019072;28;20029;-70
2022/10/16 04:43:50;;;;;;;3.38;1.30;;;;;;;13.13;93.46;101118.22;5043794;28;20453;-70
2022/10/16 04:46:15;;;;;;;2.20;1.20;;;;;;;13.12;93.57;101114.75;5041836;28;20537;-70
2022/10/16 04:48:40;;;;;;;3.50;1.30;;;;;;;13.13;93.34;101123.38;5036584;28;20037;-70
2022/10/16 04:51:06;;;;;;;2.85;1.40;;;;;;;13.13;93.34;101134.56;5019095;28;20546;-70
2022/10/16 04:53:31;;;;;;;3.90;1.55;;;;;;;13.10;93.52;101133.63;5040632;28;20060;-70
2022/10/16 04:55:57;;;;;;;2.75;1.25;;;;;;;13.11;93.63;101135.38;5023641;28;20072;-70
2022/10/16 04:58:22;;;;;;;2.47;1.30;;;;;;;13.10;93.68;101143.94;5043610;28;20082;-70
2022/10/16 05:00:48;;;;;;;2.65;1.30;;;;;;;13.08;93.70;101143.06;5042572;28;20036;-70
2022/10/16 05:03:13;;;;;;;4.95;1.70;;;;;;;13.11;93.58;101151.75;5044037;28;20091;-70
2022/10/16 05:05:45;;;;;;;4.45;1.35;;;;;;;13.08;93.57;101153.38;5037493;28;20474;-70
2022/10/16 05:08:14;;;;;;;2.88;1.23;;;;;;;13.09;93.95;101168.91;5043129;28;20052;-70
2022/10/16 05:10:42;;;;;;;3.97;1.30;;;;;;;13.10;93.53;101159.44;5043472;28;20065;-70
2022/10/16 05:13:08;;;;;;;1.92;1.20;;;;;;;13.09;93.50;101163.72;5042635;28;20063;-70
2022/10/16 05:15:34;;;;;;;3.08;1.35;;;;;;;13.07;93.70;101156.81;5043909;28;20028;-70
2022/10/16 05:17:59;;;;;;;2.75;1.23;;;;;;;13.04;93.63;101151.56;5041231;28;20034;-70
2022/10/16 05:20:25;;;;;;;2.55;1.30;;;;;;;13.03;93.86;101157.56;5046202;28;20060;-71
2022/10/16 05:22:50;;;;;;;4.15;1.30;;;;;;;13.01;93.88;101154.94;5042206;28;20529;-71
2022/10/16 05:25:16;;;;;;;2.92;1.38;;;;;;;13.01;93.87;101157.53;5039007;28;20116;-70
2022/10/16 05:27:41;;;;;;;3.58;1.70;;;;;;;13.02;94.38;101171.31;5020683;28;20036;-70
2022/10/16 05:30:07;;;;;;;7.30;1.52;;;;;;;12.98;94.17;101180.69;5045480;28;20494;-70
2022/10/16 05:32:33;;;;;;;5.20;1.65;;;;;;;12.99;94.15;101184.16;5039292;28;20029;-70
2022/10/16 05:34:59;;;;;;;3.08;1.50;;;;;;;12.98;94.00;101182.38;5038985;28;20033;-70
2022/10/16 05:37:25;;;;;;;4.93;1.40;;;;;;;12.94;94.50;101184.06;5047684;28;20391;-70
2022/10/16 05:39:51;;;;;;;5.05;1.58;;;;;;;12.98;94.50;101201.34;5039699;28;20041;-70
2022/10/16 05:42:16;;;;;;;2.63;1.55;;;;;;;12.94;94.20;101201.25;5038569;28;20144;-71
2022/10/16 05:44:41;;;;;;;3.13;1.50;;;;;;;12.96;94.45;101202.16;5026694;28;20045;-71
2022/10/16 05:47:07;;;;;;;3.30;1.40;;;;;;;12.96;94.60;101221.09;5026595;28;20112;-70
2022/10/16 05:49:32;;;;;;;5.80;1.42;;;;;;;12.93;94.73;101218.44;5044264;28;20078;-70
2022/10/16 05:51:58;;;;;;;5.28;1.60;;;;;;;12.96;94.44;101228.81;5043580;28;20427;-70
2022/10/16 05:54:23;;;;;;;3.25;1.38;;;;;;;12.93;94.70;101227.91;5044668;28;20055;-70
2022/10/16 05:56:48;;;;;;;3.10;1.40;;;;;;;12.93;94.54;101223.59;5039313;28;20045;-70
2022/10/16 05:59:14;;;;;;;3.10;1.30;;;;;;;12.91;94.59;101239.88;5039722;28;20033;-70
2022/10/16 06:01:39;;;;;;;3.45;1.33;;;;;;;12.93;94.74;101241.69;5040266;28;20522;-70
2022/10/16 06:04:04;;;;;;;3.13;1.63;;;;;;;12.91;94.78;101252.78;5020638;28;20021;-70
2022/10/16 06:06:30;;;;;;;3.97;1.63;;;;;;;12.89;94.71;101253.63;5038128;28;20455;-70
2022/10/16 06:08:56;;;;;;;4.40;1.50;;;;;;;12.88;94.65;101245.84;5013508;28;20075;-70
2022/10/16 06:11:25;;;;;;;3.50;1.58;;;;;;;12.90;94.75;101254.50;5040686;28;20103;-70
2022/10/16 06:13:56;;;;;;;3.22;1.40;;;;;;;12.88;94.85;101251.00;5038089;28;20037;-70
2022/10/16 06:16:22;;;;;;;4.88;1.40;;;;;;;12.91;95.00;101260.53;5040637;28;20037;-70
2022/10/16 06:18:50;;;;;;;7.35;1.83;;;;;;;12.89;94.79;101257.91;5042277;28;20047;-70
2022/10/16 06:21:21;;;;;;;4.55;1.80;;;;;;;12.88;95.05;101266.50;5040387;28;20037;-70
2022/10/16 06:23:47;;;;;;;3.53;1.40;;;;;;;12.82;94.95;101266.34;5041692;28;20033;-71
2022/10/16 06:26:15;;;;;;;3.88;1.63;;;;;;;12.87;95.27;101275.94;5036215;28;20129;-71
2022/10/16 06:28:40;;;;;;;7.95;1.50;;;;;;;12.85;95.17;101268.97;5040811;28;20025;-69
2022/10/16 06:31:08;;;;;;;3.35;1.45;;;;;;;12.85;95.47;101272.44;5021100;28;20553;-68
2022/10/16 06:33:33;;;;;;;3.17;1.50;;;;;;;12.83;95.42;101278.41;5039560;28;20474;-68
2022/10/16 06:36:03;;;;;;;5.65;1.60;;;;;;;12.87;95.80;101291.44;5038362;28;20033;-69
2022/10/16 06:38:29;;;;;;;5.88;1.77;;;;;;;12.85;95.59;101287.91;5033662;28;20030;-69
2022/10/16 06:40:54;;;;;;;4.25;1.50;;;;;;;12.86;95.75;101293.94;5036304;28;20041;-69
2022/10/16 06:43:19;;;;;;;4.47;1.60;;;;;;;12.86;96.13;101302.59;5043196;28;20033;-68
2022/10/16 06:45:56;;;;;;;4.57;1.90;;;;;;;12.91;96.10;101297.53;5038805;28;20076;-69
2022/10/16 06:48:22;;;;;;;4.80;2.10;;;;;;;12.93;96.46;101305.34;5017940;28;20112;-69
2022/10/16 06:51:04;;;;;;;7.35;1.77;;;;;;;12.97;96.46;101309.72;5041520;28;20151;-68
2022/10/16 06:53:33;;;;;;;4.43;1.73;;;;;;;12.97;96.65;101314.88;5042675;28;20081;-68
2022/10/16 06:56:13;;;;;;;4.67;1.90;;;;;;;13.01;96.97;101308.97;5046414;28;20024;-69
2022/10/16 06:58:39;;;;;;;4.13;1.70;;;;;;;13.00;97.02;101318.44;5043207;28;20429;-68
2022/10/16 07:01:04;;;;;;;3.88;1.75;;;;;;;13.05;97.08;101314.25;5043019;28;20029;-68
2022/10/16 07:03:30;;;;;;;6.95;1.80;;;;;;;13.05;97.50;101326.28;5045730;28;20029;-67
2022/10/16 07:05:56;;;;;;;4.55;1.98;;;;;;;13.09;97.74;101334.13;5041862;28;20028;-68
2022/10/16 07:08:21;;;;;;;3.97;1.60;;;;;;;13.14;97.69;101331.69;5041632;28;20503;-68
2022/10/16 07:10:47;;;;;;;6.75;2.08;;;;;;;13.10;98.25;101329.84;5041913;28;20088;-68
2022/10/16 07:13:14;;;;;;;5.65;1.67;;;;;;;13.20;98.25;101338.69;5024825;28;20032;-68
2022/10/16 07:15:40;;;;;;;6.63;2.45;;;;;;;13.24;98.16;101344.03;5027668;28;20488;-68
2022/10/16 07:18:05;;;;;;;4.90;2.00;;;;;;;13.27;98.41;101332.88;5043546;28;20021;-68
2022/10/16 07:20:31;;;;;;;3.53;1.77;;;;;;;13.34;97.93;101353.72;5042716;28;21786;-68
2022/10/16 07:22:56;;;;;;;3.92;1.80;;;;;;;13.37;97.81;101351.22;5037673;28;20174;-68
2022/10/16 07:25:21;;;;;;;4.70;1.90;;;;;;;13.38;97.47;101357.25;5038629;28;20029;-68
2022/10/16 07:27:47;;;;;;;5.30;1.90;;;;;;;13.41;98.15;101371.16;5040067;28;20068;-68
2022/10/16 07:30:12;;;;;;;6.32;2.13;;;;;;;13.44;97.73;101385.84;5011833;28;20657;-68
2022/10/16 07:32:37;;;;;;;5.75;2.30;;;;;;;13.43;97.65;101383.22;5047794;28;20032;-69
2022/10/16 07:35:03;;;;;;;6.07;1.95;;;;;;;13.42;97.66;101384.94;5044687;28;20037;-69
2022/10/16 07:37:29;;;;;;;8.32;2.00;;;;;;;13.49;97.45;101380.78;5043629;28;20040;-69
2022/10/16 07:39:54;;;;;;;8.30;2.60;;;;;;;13.48;97.42;101390.25;5043378;28;20029;-69
2022/10/16 07:42:20;;;;;;;4.63;1.90;;;;;;;13.53;97.51;101385.16;5047434;28;20566;-68
2022/10/16 07:44:45;;;;;;;5.88;2.15;;;;;;;13.58;97.44;101389.63;5046840;28;20483;-68
2022/10/16 07:47:10;;;;;;;6.72;1.98;;;;;;;13.60;97.13;101397.44;5015567;28;20044;-68
2022/10/16 07:49:36;;;;;;;7.10;1.75;;;;;;;13.64;97.01;101388.88;5024709;28;20479;-68
2022/10/16 07:52:01;;;;;;;4.35;1.80;;;;;;;13.71;97.01;101408.00;5018485;28;20064;-68
2022/10/16 07:54:27;;;;;;;5.03;1.65;;;;;;;13.75;96.83;101415.00;5045465;28;20062;-67
2022/10/16 07:56:52;;;;;;;4.88;1.80;;;;;;;13.81;96.66;101415.13;5040948;28;20043;-68
2022/10/16 07:59:17;;;;;;;5.90;1.90;;;;;;;13.83;96.67;101410.88;5039896;28;20025;-68
2022/10/16 08:01:43;;;;;;;3.50;1.60;;;;;;;13.91;96.43;101411.94;5042251;28;20071;-68
2022/10/16 08:04:09;;;;;;;5.65;1.75;;;;;;;14.00;96.20;101412.13;5046091;28;20029;-68
2022/10/16 08:06:38;;;;;;;4.82;1.80;;;;;;;14.12;95.67;101412.41;5027478;28;20084;-69
2022/10/16 08:09:04;;;;;;;5.30;2.10;;;;;;;14.18;95.35;101420.31;5046433;28;20082;-68
2022/10/16 08:11:29;;;;;;;3.42;2.00;;;;;;;14.31;94.74;101430.91;5040505;28;20045;-68
2022/10/16 08:13:55;;;;;;;5.47;1.80;;;;;;;14.41;93.80;101436.34;5039304;28;20090;-69
2022/10/16 08:16:21;;;;;;;4.18;1.75;;;;;;;14.60;92.42;101447.09;5020767;28;20064;-69
2022/10/16 08:18:46;;;;;;;5.72;1.63;;;;;;;14.81;91.59;101449.28;5041352;28;20487;-69
2022/10/16 08:21:15;;;;;;;5.47;1.50;;;;;;;14.94;91.12;101465.09;5039209;28;20037;-69
2022/10/16 08:23:41;;;;;;;3.53;1.45;;;;;;;15.05;90.11;101456.66;5043685;28;20108;-69
2022/10/16 08:26:08;;;;;;;6.15;1.38;;;;;;;15.16;89.79;101463.75;5043332;28;20124;-69
2022/10/16 08:28:35;;;;;;;5.28;1.35;;;;;;;15.22;89.29;101453.50;5042042;28;20025;-69
2022/10/16 08:31:27;;;;;;;3.88;1.30;;;;;;;15.45;89.72;101461.69;5051921;28;20013;-69
2022/10/16 08:33:52;;;;;;;4.90;1.60;;;;;;;15.58;87.68;101465.38;5050219;28;20047;-69
2022/10/16 08:36:18;;;;;;;4.30;1.40;;;;;;;15.77;86.18;101469.19;5058335;28;20021;-69
2022/10/16 08:38:43;;;;;;;4.05;1.77;;;;;;;15.93;85.94;101473.78;5037238;28;20032;-69
2022/10/16 08:41:50;;;;;;;5.38;1.20;;;;;;;16.13;86.10;101473.19;5046147;28;20503;-69
2022/10/16 08:44:44;;;;;;;3.92;1.23;;;;;;;16.32;85.50;101476.13;5043591;28;20226;-69
2022/10/16 08:47:37;;;;;;;4.20;1.10;;;;;;;16.60;84.52;101479.06;5040499;28;20051;-69
2022/10/16 08:50:11;;;;;;;4.43;1.38;;;;;;;16.86;82.91;101482.03;5035959;28;20040;-69
2022/10/16 08:52:41;;;;;;;2.90;1.25;;;;;;;17.00;81.71;101477.88;5022661;28;20025;-69
2022/10/16 08:55:23;;;;;;;3.83;1.30;;;;;;;17.07;81.17;101490.09;5039634;28;20037;-69
2022/10/16 08:57:49;;;;;;;4.80;1.73;;;;;;;17.05;80.18;101489.19;5047438;28;20036;-69
2022/10/16 09:00:15;;;;;;;5.68;1.27;;;;;;;17.19;77.77;101493.69;5019608;28;20506;-69
2022/10/16 09:02:58;;;;;;;5.43;1.40;;;;;;;17.27;78.76;101499.81;5020406;28;20025;-69
2022/10/16 09:05:52;;;;;;;3.33;1.40;;;;;;;17.47;79.94;101500.00;5043793;28;20094;-69
2022/10/16 09:08:29;;;;;;;5.30;1.50;;;;;;;17.41;78.04;101495.63;5033767;28;20385;-69
2022/10/16 09:11:00;;;;;;;9.10;1.38;;;;;;;17.44;77.00;101511.28;5042009;28;20045;-69
2022/10/16 09:14:04;;;;;;;7.97;1.23;;;;;;;17.46;77.95;101504.34;5039340;28;20026;-69
2022/10/16 09:16:48;;;;;;;4.53;1.40;;;;;;;17.43;78.04;101509.53;5038878;28;20667;-69
2022/10/16 09:19:26;;;;;;;6.57;1.35;;;;;;;17.45;78.31;101506.94;5037945;28;20021;-69
2022/10/16 09:21:53;;;;;;;6.45;1.60;;;;;;;17.40;75.87;101515.56;5040164;28;20071;-69
2022/10/16 09:24:22;;;;;;;4.97;1.38;;;;;;;17.32;76.14;101524.13;5019833;28;20032;-69
2022/10/16 09:26:47;;;;;;;5.70;1.60;;;;;;;17.36;76.43;101526.78;5043639;28;20120;-69
2022/10/16 09:29:23;;;;;;;7.50;1.70;;;;;;;17.38;76.73;101522.47;5037290;28;20439;-69
2022/10/16 09:31:48;;;;;;;5.75;1.80;;;;;;;17.31;75.83;101522.41;5039334;28;20032;-69
2022/10/16 09:34:35;;;;;;;5.78;1.52;;;;;;;17.36;77.78;101523.31;5041649;28;20033;-69
2022/10/16 09:37:05;;;;;;;7.30;1.40;;;;;;;17.38;76.62;101532.00;5017014;28;20033;-69
2022/10/16 09:39:30;;;;;;;7.47;1.33;;;;;;;17.33;77.48;101524.16;5042411;28;20029;-68
2022/10/16 09:41:56;;;;;;;4.80;1.65;;;;;;;17.40;78.02;101538.06;5036470;28;20040;-68
2022/10/16 09:44:29;;;;;;;8.43;1.60;;;;;;;17.43;77.91;101532.94;5036229;28;20487;-68
2022/10/16 09:47:20;;;;;;;10.27;1.88;;;;;;;17.37;76.41;101520.75;5038520;28;20037;-68
2022/10/16 09:49:58;;;;;;;7.35;1.88;;;;;;;17.42;77.12;101531.19;5040891;28;20438;-68
2022/10/16 09:52:24;;;;;;;7.93;1.30;;;;;;;17.42;76.19;101531.19;5038779;28;20375;-68
2022/10/16 09:54:55;;;;;;;7.80;1.80;;;;;;;17.47;75.71;101539.00;5039113;28;20032;-68
2022/10/16 09:57:21;;;;;;;7.07;1.13;;;;;;;17.47;76.24;101539.88;5040455;28;20055;-69
2022/10/16 09:59:54;;;;;;;9.57;1.70;;;;;;;17.49;75.63;101534.72;5041534;28;20040;-68
2022/10/16 10:02:38;;;;;;;9.32;1.73;;;;;;;17.54;75.94;101539.13;5038679;28;20475;-66
2022/10/16 10:05:06;;;;;;;8.93;1.42;;;;;;;17.55;75.21;101540.84;5040521;28;20480;-68
2022/10/16 10:07:42;;;;;;;13.15;1.80;;;;;;;17.62;75.24;101545.25;5036696;28;20048;-69
2022/10/16 10:10:29;;;;;;;7.63;1.95;;;;;;;17.67;75.41;101542.72;5014563;28;20453;-69
2022/10/16 10:12:55;;;;;;;12.07;3.22;;;;;;;17.66;74.73;101540.97;5041294;28;20035;-68
2022/10/16 10:15:23;;;;;;;15.15;3.20;;;;;;;17.75;75.58;101548.00;5039086;28;20034;-69
2022/10/16 10:17:50;;;;;;;11.82;4.00;;;;;;;17.73;76.15;101542.81;5039082;28;20061;-68
2022/10/16 10:20:45;;;;;;;9.82;3.10;;;;;;;17.78;75.50;101550.66;5036499;28;20075;-68
2022/10/16 10:23:22;;;;;;;14.75;3.47;;;;;;;17.85;74.14;101549.84;5026872;28;20046;-70
2022/10/16 10:25:56;;;;;;;9.63;3.00;;;;;;;17.85;74.39;101562.84;5049976;28;20030;-69
2022/10/16 10:28:52;;;;;;;12.80;2.63;;;;;;;17.94;74.60;101558.59;5052742;28;20424;-70
2022/10/16 10:31:45;;;;;;;9.30;3.17;;;;;;;17.99;74.21;101560.38;5043305;28;20107;-70
2022/10/16 10:34:32;;;;;;;11.27;1.90;;;;;;;18.02;74.04;101571.69;5043369;28;20447;-69
2022/10/16 10:37:28;;;;;;;10.23;1.88;;;;;;;18.06;73.98;101557.81;5030591;28;20041;-70
2022/10/16 10:40:09;;;;;;;8.13;1.42;;;;;;;18.12;73.58;101568.28;5047613;28;20096;-70
2022/10/16 10:42:51;;;;;;;12.10;1.98;;;;;;;18.13;72.74;101569.16;5047232;28;20043;-70
2022/10/16 10:45:33;;;;;;;12.88;2.63;;;;;;;18.03;69.62;101573.44;5046850;28;20025;-69
2022/10/16 10:48:17;;;;;;;13.07;1.83;;;;;;;18.04;70.83;101569.97;5047471;28;20035;-70
2022/10/16 10:51:17;;;;;;;10.20;3.05;;;;;;;18.13;71.34;101574.34;5045258;28;20047;-70
2022/10/16 10:54:00;;;;;;;10.88;2.72;;;;;;;18.14;70.06;101563.09;5043294;28;20032;-70
2022/10/16 10:56:44;;;;;;;13.55;2.15;;;;;;;18.20;69.97;101571.84;5044725;28;20395;-70
2022/10/16 10:59:39;;;;;;;11.48;1.90;;;;;;;18.27;70.39;101571.88;5050848;28;20061;-70
2022/10/16 11:02:21;;;;;;;10.55;1.95;;;;;;;18.29;69.10;101586.66;5045205;28;20021;-70
2022/10/16 11:05:00;;;;;;;9.15;1.73;;;;;;;18.33;69.53;101592.75;5050042;28;20539;-70
2022/10/16 11:07:30;;;;;;;11.82;1.90;;;;;;;18.25;68.60;101584.88;5041389;28;20025;-69
2022/10/16 11:10:02;;;;;;;7.28;1.85;;;;;;;18.41;67.88;101588.47;5040241;28;20024;-70
2022/10/16 11:12:38;;;;;;;11.48;1.65;;;;;;;18.58;67.57;101586.00;5039569;28;20627;-70
2022/10/16 11:15:19;;;;;;;11.18;2.00;;;;;;;18.57;67.26;101587.72;5024786;28;20037;-70
2022/10/16 11:17:48;;;;;;;15.52;1.90;;;;;;;18.45;68.16;101585.91;5039280;28;20480;-69
2022/10/16 11:20:16;;;;;;;;;;;;;;;18.73;70.32;101586.97;5043522;28;20060;-69
2022/10/16 11:22:51;;;;;;;11.98;2.45;;;;;;;18.92;66.26;101585.34;5041095;28;19970;-69
2022/10/16 11:25:22;;;;;;;10.95;2.00;;;;;;;19.11;64.48;101588.94;5046844;28;20037;-69
2022/10/16 11:27:53;;;;;;;10.73;1.58;;;;;;;19.37;64.22;101583.81;5041415;28;20038;-70
2022/10/16 11:30:23;;;;;;;9.88;1.77;;;;;;;19.48;63.54;101578.63;5043253;28;20052;-70
2022/10/16 11:33:05;;;;;;;10.27;1.80;;;;;;;19.65;63.28;101579.56;5020817;28;20020;-69
2022/10/16 11:35:40;;;;;;;7.88;1.90;;;;;;;19.59;63.60;101584.75;5043410;28;20487;-69
2022/10/16 11:38:17;;;;;;;9.75;1.77;;;;;;;19.65;64.15;101584.78;5041949;28;20155;-70